createdAt,value
2024-05-09T00:00:01.913Z,0
2024-05-09T00:01:16.206Z,0
2024-05-09T00:02:30.498Z,0
2024-05-09T00:03:44.792Z,0
2024-05-09T00:04:59.084Z,0
2024-05-09T00:06:13.377Z,0
2024-05-09T00:07:27.670Z,0
2024-05-09T00:08:41.963Z,0
2024-05-09T00:11:10.548Z,0
2024-05-09T00:12:24.841Z,0
2024-05-09T00:13:39.134Z,0
2024-05-09T00:14:53.427Z,0
2024-05-09T00:16:07.720Z,0
2024-05-09T00:17:22.013Z,0
2024-05-09T00:18:36.306Z,0
2024-05-09T00:19:50.600Z,0
2024-05-09T00:21:04.892Z,0
2024-05-09T00:22:19.185Z,0
2024-05-09T00:23:33.479Z,0
2024-05-09T00:24:47.772Z,0
2024-05-09T00:26:02.064Z,0
2024-05-09T00:27:16.357Z,0
2024-05-09T00:28:30.650Z,0
2024-05-09T00:29:44.943Z,0
2024-05-09T00:30:59.236Z,0
2024-05-09T00:32:13.529Z,0
2024-05-09T00:33:27.822Z,0
2024-05-09T00:34:42.115Z,0
2024-05-09T00:35:56.408Z,0
2024-05-09T00:37:10.701Z,0
2024-05-09T00:38:24.994Z,0
2024-05-09T00:40:53.580Z,0
2024-05-09T00:42:07.873Z,0
2024-05-09T00:43:22.166Z,0
2024-05-09T00:44:36.459Z,0
2024-05-09T00:45:50.752Z,0
2024-05-09T00:47:05.045Z,0
2024-05-09T00:48:19.338Z,0
2024-05-09T00:49:33.631Z,0
2024-05-09T00:50:47.924Z,0
2024-05-09T00:52:02.217Z,0
2024-05-09T00:53:16.510Z,0
2024-05-09T00:54:30.803Z,0
2024-05-09T00:55:45.096Z,0
2024-05-09T00:56:59.390Z,0
2024-05-09T00:58:13.683Z,0
2024-05-09T00:59:27.975Z,0
2024-05-09T01:01:56.561Z,0
2024-05-09T01:03:10.854Z,0
2024-05-09T01:04:25.147Z,0
2024-05-09T01:05:39.440Z,0
2024-05-09T01:06:53.733Z,0
2024-05-09T01:08:08.026Z,0
2024-05-09T01:10:36.612Z,0
2024-05-09T01:11:50.905Z,0
2024-05-09T01:13:05.198Z,0
2024-05-09T01:14:19.491Z,0
2024-05-09T01:15:33.784Z,0
2024-05-09T01:16:48.076Z,0
2024-05-09T01:18:02.369Z,0
2024-05-09T01:19:16.662Z,0
2024-05-09T01:20:30.955Z,0
2024-05-09T01:21:45.248Z,0
2024-05-09T01:22:59.541Z,0
2024-05-09T01:25:28.127Z,0
2024-05-09T01:26:41.441Z,0
2024-05-09T01:27:54.750Z,0
2024-05-09T01:29:09.043Z,0
2024-05-09T01:30:23.336Z,0
2024-05-09T01:31:36.650Z,0
2024-05-09T01:32:50.943Z,0
2024-05-09T01:34:05.236Z,0
2024-05-09T01:35:19.528Z,0
2024-05-09T01:36:33.821Z,0
2024-05-09T01:37:48.114Z,0
2024-05-09T01:39:01.429Z,0
2024-05-09T01:40:14.738Z,0
2024-05-09T01:41:29.030Z,0
2024-05-09T01:42:43.323Z,0
2024-05-09T01:43:57.616Z,0
2024-05-09T01:45:11.909Z,0
2024-05-09T01:46:26.201Z,0
2024-05-09T01:47:40.494Z,0
2024-05-09T01:48:54.787Z,0
2024-05-09T01:50:09.080Z,0
2024-05-09T01:51:23.373Z,0
2024-05-09T01:52:37.666Z,0
2024-05-09T01:53:51.958Z,0
2024-05-09T01:55:06.251Z,0
2024-05-09T01:56:19.560Z,0
2024-05-09T01:57:33.853Z,0
2024-05-09T01:58:48.146Z,0
2024-05-09T02:00:02.439Z,0
2024-05-09T02:01:16.732Z,0
2024-05-09T02:02:31.026Z,0
2024-05-09T02:03:45.319Z,0
2024-05-09T02:04:59.612Z,0
2024-05-09T02:06:13.905Z,0
2024-05-09T02:07:28.198Z,0
2024-05-09T02:08:42.490Z,0
2024-05-09T02:09:56.784Z,0
2024-05-09T02:11:11.077Z,0
2024-05-09T02:12:24.386Z,0
2024-05-09T02:13:38.678Z,0
2024-05-09T02:14:52.971Z,0
2024-05-09T02:16:07.264Z,0
2024-05-09T02:17:21.557Z,0
2024-05-09T02:18:35.850Z,0
2024-05-09T02:19:50.144Z,0
2024-05-09T02:21:04.437Z,0
2024-05-09T02:22:18.730Z,0
2024-05-09T02:23:33.023Z,0
2024-05-09T02:24:47.316Z,0
2024-05-09T02:26:01.609Z,0
2024-05-09T02:27:15.902Z,0
2024-05-09T02:28:29.212Z,0
2024-05-09T02:29:43.505Z,0
2024-05-09T02:32:12.091Z,0
2024-05-09T02:33:26.384Z,0
2024-05-09T02:34:40.677Z,0
2024-05-09T02:35:54.970Z,0
2024-05-09T02:39:37.850Z,0
2024-05-09T02:40:51.164Z,0
2024-05-09T02:42:04.473Z,0
2024-05-09T02:43:18.766Z,0
2024-05-09T02:44:33.060Z,0
2024-05-09T02:45:47.353Z,0
2024-05-09T02:47:01.646Z,0
2024-05-09T02:48:15.940Z,0
2024-05-09T02:49:30.233Z,0
2024-05-09T02:50:44.472Z,1
2024-05-09T02:51:58.765Z,0
2024-05-09T02:53:12.080Z,0
2024-05-09T02:54:25.346Z,1
2024-05-09T02:55:39.585Z,1
2024-05-09T02:56:53.825Z,1
2024-05-09T02:58:08.118Z,0
2024-05-09T02:59:22.412Z,0
2024-05-09T03:00:36.662Z,2
2024-05-09T03:01:50.901Z,1
2024-05-09T03:03:05.140Z,1
2024-05-09T03:04:19.380Z,2
2024-05-09T03:05:33.619Z,1
2024-05-09T03:06:47.858Z,1
2024-05-09T03:08:02.097Z,4
2024-05-09T03:09:16.336Z,5
2024-05-09T03:10:30.697Z,2
2024-05-09T03:11:44.937Z,2
2024-05-09T03:12:59.176Z,2
2024-05-09T03:14:13.416Z,4
2024-05-09T03:15:27.655Z,4
2024-05-09T03:16:41.894Z,5
2024-05-09T03:17:56.133Z,7
2024-05-09T03:19:10.372Z,12
2024-05-09T03:20:24.611Z,12
2024-05-09T03:21:38.851Z,16
2024-05-09T03:24:07.329Z,17
2024-05-09T03:25:21.568Z,21
2024-05-09T03:26:34.824Z,22
2024-05-09T03:27:49.063Z,26
2024-05-09T03:29:03.302Z,26
2024-05-09T03:30:17.541Z,34
2024-05-09T03:31:31.780Z,38
2024-05-09T03:32:46.020Z,40
2024-05-09T03:34:00.259Z,46
2024-05-09T03:35:14.498Z,51
2024-05-09T03:36:28.737Z,54
2024-05-09T03:37:42.976Z,60
2024-05-09T03:38:57.216Z,65
2024-05-09T03:40:11.454Z,71
2024-05-09T03:41:25.693Z,73
2024-05-09T03:42:38.949Z,80
2024-05-09T03:43:53.188Z,86
2024-05-09T03:45:07.428Z,90
2024-05-09T03:46:21.667Z,91
2024-05-09T03:47:35.906Z,94
2024-05-09T03:48:50.146Z,100
2024-05-09T03:50:04.385Z,104
2024-05-09T03:51:18.624Z,108
2024-05-09T03:53:47.102Z,124
2024-05-09T03:55:01.341Z,134
2024-05-09T03:56:15.581Z,143
2024-05-09T03:57:29.820Z,142
2024-05-09T03:58:43.075Z,151
2024-05-09T03:59:57.314Z,161
2024-05-09T04:01:11.554Z,169
2024-05-09T04:02:25.793Z,180
2024-05-09T04:03:40.032Z,183
2024-05-09T04:04:54.271Z,189
2024-05-09T04:06:08.510Z,205
2024-05-09T04:07:22.750Z,223
2024-05-09T04:08:36.989Z,245
2024-05-09T04:09:51.228Z,251
2024-05-09T04:11:05.468Z,254
2024-05-09T04:12:19.707Z,243
2024-05-09T04:13:33.946Z,254
2024-05-09T04:14:47.202Z,248
2024-05-09T04:16:01.441Z,261
2024-05-09T04:17:15.680Z,275
2024-05-09T04:18:29.919Z,266
2024-05-09T04:19:44.159Z,295
2024-05-09T04:20:58.398Z,309
2024-05-09T04:22:12.637Z,325
2024-05-09T04:23:26.877Z,353
2024-05-09T04:24:41.115Z,378
2024-05-09T04:25:55.355Z,398
2024-05-09T04:27:09.594Z,422
2024-05-09T04:28:23.833Z,460
2024-05-09T04:29:38.072Z,483
2024-05-09T04:30:51.327Z,505
2024-05-09T04:32:05.566Z,514
2024-05-09T04:33:19.807Z,501
2024-05-09T04:34:34.046Z,497
2024-05-09T04:35:48.285Z,503
2024-05-09T04:37:02.524Z,520
2024-05-09T04:38:16.763Z,542
2024-05-09T04:39:31.002Z,539
2024-05-09T04:40:45.241Z,532
2024-05-09T04:41:59.480Z,547
2024-05-09T04:43:13.719Z,559
2024-05-09T04:44:27.958Z,563
2024-05-09T04:45:42.197Z,566
2024-05-09T04:46:55.452Z,591
2024-05-09T04:48:09.691Z,622
2024-05-09T04:49:23.930Z,672
2024-05-09T04:50:38.170Z,702
2024-05-09T04:51:52.409Z,720
2024-05-09T04:53:06.648Z,744
2024-05-09T04:54:20.887Z,766
2024-05-09T04:55:35.126Z,782
2024-05-09T04:56:49.366Z,788
2024-05-09T04:58:03.605Z,792
2024-05-09T04:59:17.844Z,808
2024-05-09T05:00:32.083Z,792
2024-05-09T05:01:46.321Z,717
2024-05-09T05:02:59.576Z,596
2024-05-09T05:04:13.815Z,2458
2024-05-09T05:05:28.054Z,1168
2024-05-09T05:06:42.293Z,1420
2024-05-09T05:07:56.532Z,1238
2024-05-09T05:09:10.771Z,1094
2024-05-09T05:10:25.010Z,1053
2024-05-09T05:11:39.249Z,545
2024-05-09T05:12:53.487Z,1718
2024-05-09T05:15:21.965Z,1376
2024-05-09T05:17:50.443Z,1319
2024-05-09T05:19:03.698Z,1289
2024-05-09T05:20:17.937Z,1187
2024-05-09T05:21:32.176Z,1492
2024-05-09T05:22:46.415Z,1501
2024-05-09T05:24:00.654Z,1458
2024-05-09T05:25:14.892Z,1429
2024-05-09T05:26:29.133Z,1485
2024-05-09T05:27:43.371Z,1435
2024-05-09T05:28:57.610Z,847
2024-05-09T05:30:11.849Z,1261
2024-05-09T05:31:26.088Z,2293
2024-05-09T05:32:40.327Z,2823
2024-05-09T05:33:54.565Z,3733
2024-05-09T05:35:07.821Z,4085
2024-05-09T05:36:22.060Z,4187
2024-05-09T05:37:36.299Z,4824
2024-05-09T05:38:50.538Z,5963
2024-05-09T05:40:03.798Z,2248
2024-05-09T05:41:18.037Z,4561
2024-05-09T05:42:32.276Z,4070
2024-05-09T05:43:46.515Z,3868
2024-05-09T05:45:00.754Z,4102
2024-05-09T05:46:14.993Z,4677
2024-05-09T05:47:29.232Z,4761
2024-05-09T05:48:43.471Z,4787
2024-05-09T05:49:57.710Z,4925
2024-05-09T05:51:11.949Z,4208
2024-05-09T05:52:26.188Z,4735
2024-05-09T05:53:40.427Z,4608
2024-05-09T05:54:54.666Z,8552
2024-05-09T05:56:07.921Z,1911
2024-05-09T05:57:22.160Z,1786
2024-05-09T05:58:36.399Z,1026
2024-05-09T05:59:50.638Z,4195
2024-05-09T06:01:04.877Z,1051
2024-05-09T06:02:19.116Z,4308
2024-05-09T06:03:33.355Z,1021
2024-05-09T06:04:47.594Z,3617
2024-05-09T06:06:01.833Z,2101
2024-05-09T06:07:16.072Z,1835
2024-05-09T06:08:30.311Z,1924
2024-05-09T06:09:44.550Z,1797
2024-05-09T06:10:58.789Z,2295
2024-05-09T06:12:12.045Z,2040
2024-05-09T06:14:40.523Z,2024
2024-05-09T06:15:54.762Z,1946
2024-05-09T06:17:09.001Z,2191
2024-05-09T06:18:23.240Z,1914
2024-05-09T06:19:37.479Z,2007
2024-05-09T06:20:51.718Z,1814
2024-05-09T06:22:05.957Z,3036
2024-05-09T06:23:20.196Z,2325
2024-05-09T06:24:34.435Z,2098
2024-05-09T06:25:48.674Z,1447
2024-05-09T06:27:02.913Z,7849
2024-05-09T06:28:16.168Z,1747
2024-05-09T06:29:30.407Z,1651
2024-05-09T06:30:44.646Z,6921
2024-05-09T06:31:58.886Z,3293
2024-05-09T06:33:13.125Z,1466
2024-05-09T06:34:27.364Z,5734
2024-05-09T06:35:41.603Z,2467
2024-05-09T06:36:55.842Z,3350
2024-05-09T06:38:10.081Z,1506
2024-05-09T06:39:24.320Z,7632
2024-05-09T06:40:38.559Z,1517
2024-05-09T06:41:52.798Z,2527
2024-05-09T06:43:07.037Z,10847
2024-05-09T06:44:20.292Z,2168
2024-05-09T06:45:34.531Z,6212
2024-05-09T06:46:48.770Z,10148
2024-05-09T06:48:03.009Z,2250
2024-05-09T06:49:17.248Z,1888
2024-05-09T06:50:31.487Z,8054
2024-05-09T06:51:45.726Z,2971
2024-05-09T06:52:59.966Z,6977
2024-05-09T06:54:14.205Z,3846
2024-05-09T06:55:28.444Z,5483
2024-05-09T06:56:42.682Z,5993
2024-05-09T06:57:56.921Z,6373
2024-05-09T06:59:11.160Z,5352
2024-05-09T07:00:24.415Z,5689
2024-05-09T07:01:38.654Z,9642
2024-05-09T07:02:52.892Z,2437
2024-05-09T07:04:07.131Z,5789
2024-05-09T07:05:21.370Z,7807
2024-05-09T07:06:35.609Z,2779
2024-05-09T07:07:49.847Z,6085
2024-05-09T07:09:04.086Z,5424
2024-05-09T07:10:18.324Z,5779
2024-05-09T07:11:32.563Z,5920
2024-05-09T07:12:46.802Z,5975
2024-05-09T07:14:01.041Z,5593
2024-05-09T07:15:15.279Z,5769
2024-05-09T07:16:28.534Z,5511
2024-05-09T07:17:42.772Z,6046
2024-05-09T07:18:57.011Z,5240
2024-05-09T07:21:25.487Z,5008
2024-05-09T07:22:39.726Z,5466
2024-05-09T07:23:53.964Z,5497
2024-05-09T07:25:08.202Z,6102
2024-05-09T07:26:22.441Z,4835
2024-05-09T07:27:36.679Z,5417
2024-05-09T07:28:50.917Z,5309
2024-05-09T07:30:05.156Z,5241
2024-05-09T07:31:19.394Z,5469
2024-05-09T07:32:32.648Z,5392
2024-05-09T07:33:46.887Z,5359
2024-05-09T07:35:01.125Z,5391
2024-05-09T07:36:15.364Z,5480
2024-05-09T07:37:29.602Z,5083
2024-05-09T07:38:43.840Z,5354
2024-05-09T07:39:58.079Z,5312
2024-05-09T07:41:12.317Z,4941
2024-05-09T07:42:26.555Z,5426
2024-05-09T07:43:40.794Z,5330
2024-05-09T07:44:55.032Z,5428
2024-05-09T07:46:09.271Z,5444
2024-05-09T07:47:23.509Z,5668
2024-05-09T07:48:36.764Z,5306
2024-05-09T07:49:51.002Z,5265
2024-05-09T07:51:05.240Z,5494
2024-05-09T07:52:19.479Z,4954
2024-05-09T07:53:33.717Z,5366
2024-05-09T07:54:47.956Z,5489
2024-05-09T07:56:02.194Z,5343
2024-05-09T07:57:16.433Z,5279
2024-05-09T07:58:30.671Z,5347
2024-05-09T07:59:44.909Z,5196
2024-05-09T08:00:59.148Z,5225
2024-05-09T08:02:13.386Z,5216
2024-05-09T08:03:27.625Z,5089
2024-05-09T08:04:40.880Z,5132
2024-05-09T08:05:55.118Z,5369
2024-05-09T08:07:09.357Z,5166
2024-05-09T08:08:23.596Z,5154
2024-05-09T08:09:37.834Z,5235
2024-05-09T08:10:52.073Z,5053
2024-05-09T08:13:20.550Z,5054
2024-05-09T08:14:34.788Z,5124
2024-05-09T08:15:49.026Z,4982
2024-05-09T08:17:03.265Z,5064
2024-05-09T08:18:17.504Z,5163
2024-05-09T08:19:31.743Z,5122
2024-05-09T08:20:44.997Z,5070
2024-05-09T08:21:59.236Z,5114
2024-05-09T08:23:13.475Z,5151
2024-05-09T08:24:27.713Z,5155
2024-05-09T08:25:41.952Z,5078
2024-05-09T08:28:10.429Z,5043
2024-05-09T08:29:24.668Z,4978
2024-05-09T08:30:38.907Z,4987
2024-05-09T08:31:53.146Z,4971
2024-05-09T08:33:07.384Z,5004
2024-05-09T08:34:21.623Z,4958
2024-05-09T08:35:35.863Z,4943
2024-05-09T08:36:49.118Z,4938
2024-05-09T08:38:03.356Z,4986
2024-05-09T08:39:17.595Z,5076
2024-05-09T08:40:31.835Z,4760
2024-05-09T08:41:46.073Z,4944
2024-05-09T08:43:00.312Z,4899
2024-05-09T08:45:28.790Z,4816
2024-05-09T08:46:43.029Z,4954
2024-05-09T08:47:57.268Z,4872
2024-05-09T08:49:11.506Z,4995
2024-05-09T08:50:25.745Z,5059
2024-05-09T08:51:39.984Z,5066
2024-05-09T08:52:53.239Z,5613
2024-05-09T08:54:07.478Z,5807
2024-05-09T08:55:21.717Z,5794
2024-05-09T08:56:35.955Z,5063
2024-05-09T08:57:50.194Z,7013
2024-05-09T08:59:04.433Z,9314
2024-05-09T09:00:18.672Z,7852
2024-05-09T09:01:32.911Z,6411
2024-05-09T09:02:47.150Z,5795
2024-05-09T09:04:01.388Z,5558
2024-05-09T09:05:15.627Z,6315
2024-05-09T09:06:29.866Z,6533
2024-05-09T09:07:44.104Z,8245
2024-05-09T09:08:57.359Z,8088
2024-05-09T09:10:11.598Z,6362
2024-05-09T09:11:25.837Z,6099
2024-05-09T09:12:40.075Z,6839
2024-05-09T09:13:54.314Z,7372
2024-05-09T09:15:08.552Z,7669
2024-05-09T09:16:22.790Z,7806
2024-05-09T09:17:37.029Z,7901
2024-05-09T09:18:51.267Z,8354
2024-05-09T09:20:05.505Z,7249
2024-05-09T09:21:19.744Z,6418
2024-05-09T09:22:33.982Z,6952
2024-05-09T09:23:48.221Z,6275
2024-05-09T09:25:01.475Z,5943
2024-05-09T09:26:15.713Z,6984
2024-05-09T09:27:29.953Z,6055
2024-05-09T09:28:44.191Z,6233
2024-05-09T09:29:58.429Z,6104
2024-05-09T09:31:12.668Z,6046
2024-05-09T09:33:41.145Z,7209
2024-05-09T09:34:55.383Z,6183
2024-05-09T09:36:09.622Z,5450
2024-05-09T09:37:23.860Z,5818
2024-05-09T09:38:38.098Z,5576
2024-05-09T09:39:52.337Z,5361
2024-05-09T09:41:05.592Z,4793
2024-05-09T09:42:19.830Z,5195
2024-05-09T09:43:34.068Z,5293
2024-05-09T09:44:48.307Z,4950
2024-05-09T09:46:02.546Z,4874
2024-05-09T09:47:16.784Z,5277
2024-05-09T09:48:30.044Z,4817
2024-05-09T09:49:44.282Z,4468
2024-05-09T09:50:58.521Z,4657
2024-05-09T09:52:12.759Z,4710
2024-05-09T09:53:26.998Z,4633
2024-05-09T09:54:41.236Z,5024
2024-05-09T09:55:55.475Z,5113
2024-05-09T09:57:09.713Z,4689
2024-05-09T09:58:23.952Z,7228
2024-05-09T09:59:38.190Z,2207
2024-05-09T10:00:52.428Z,4576
2024-05-09T10:02:06.667Z,4808
2024-05-09T10:03:20.905Z,7709
2024-05-09T10:04:34.160Z,2431
2024-05-09T10:05:48.398Z,4963
2024-05-09T10:07:02.637Z,5058
2024-05-09T10:08:16.876Z,5233
2024-05-09T10:09:31.114Z,4347
2024-05-09T10:11:59.591Z,2934
2024-05-09T10:13:13.829Z,5479
2024-05-09T10:14:28.068Z,3512
2024-05-09T10:15:42.306Z,2308
2024-05-09T10:16:56.545Z,4132
2024-05-09T10:18:10.784Z,4341
2024-05-09T10:19:25.022Z,4233
2024-05-09T10:20:38.277Z,4298
2024-05-09T10:21:52.516Z,4253
2024-05-09T10:23:06.755Z,4379
2024-05-09T10:24:20.993Z,4309
2024-05-09T10:26:49.471Z,3778
2024-05-09T10:28:03.710Z,3521
2024-05-09T10:29:17.948Z,1508
2024-05-09T10:30:32.187Z,4961
2024-05-09T10:31:46.426Z,3238
2024-05-09T10:33:00.664Z,4588
2024-05-09T10:34:14.903Z,4875
2024-05-09T10:35:29.141Z,4742
2024-05-09T10:36:42.396Z,5281
2024-05-09T10:37:56.635Z,5792
2024-05-09T10:39:10.873Z,6032
2024-05-09T10:40:25.112Z,6429
2024-05-09T10:41:39.351Z,6722
2024-05-09T10:42:53.589Z,6572
2024-05-09T10:44:07.828Z,5667
2024-05-09T10:45:22.066Z,5665
2024-05-09T10:46:36.305Z,5082
2024-05-09T10:47:50.543Z,11583
2024-05-09T10:49:04.782Z,8834
2024-05-09T10:51:33.260Z,16940
2024-05-09T10:52:46.514Z,13426
2024-05-09T10:54:00.753Z,3134
2024-05-09T10:55:14.991Z,2093
2024-05-09T10:56:29.230Z,6066
2024-05-09T10:57:43.468Z,15030
2024-05-09T10:58:57.707Z,2669
2024-05-09T11:00:11.946Z,11569
2024-05-09T11:01:26.184Z,12562
2024-05-09T11:03:54.661Z,4980
2024-05-09T11:05:08.900Z,4191
2024-05-09T11:06:23.138Z,2165
2024-05-09T11:07:37.377Z,3511
2024-05-09T11:08:50.631Z,15135
2024-05-09T11:10:04.870Z,3080
2024-05-09T11:11:19.109Z,8988
2024-05-09T11:12:33.347Z,13052
2024-05-09T11:13:47.586Z,3214
2024-05-09T11:15:01.824Z,2997
2024-05-09T11:16:16.063Z,1965
2024-05-09T11:18:44.540Z,2358
2024-05-09T11:19:58.778Z,5924
2024-05-09T11:21:13.017Z,25970
2024-05-09T11:22:27.255Z,13194
2024-05-09T11:23:41.494Z,28521
2024-05-09T11:24:54.749Z,23775
2024-05-09T11:26:08.987Z,16815
2024-05-09T11:27:23.226Z,14644
2024-05-09T11:28:37.464Z,17727
2024-05-09T11:29:51.703Z,7598
2024-05-09T11:31:05.942Z,27499
2024-05-09T11:32:20.181Z,19526
2024-05-09T11:33:34.419Z,21462
2024-05-09T11:34:48.658Z,18546
2024-05-09T11:36:02.897Z,20028
2024-05-09T11:37:17.136Z,19936
2024-05-09T11:39:45.614Z,3666
2024-05-09T11:40:58.869Z,17482
2024-05-09T11:42:13.107Z,4147
2024-05-09T11:43:27.347Z,3297
2024-05-09T11:44:41.585Z,5685
2024-05-09T11:45:55.824Z,5213
2024-05-09T11:48:24.302Z,3453
2024-05-09T11:49:38.541Z,25628
2024-05-09T11:50:52.779Z,3285
2024-05-09T11:52:07.018Z,19231
2024-05-09T11:53:21.257Z,16711
2024-05-09T11:54:35.496Z,10718
2024-05-09T11:55:49.735Z,6513
2024-05-09T11:57:02.989Z,8188
2024-05-09T11:58:17.228Z,4141
2024-05-09T11:59:31.467Z,3195
2024-05-09T12:00:45.705Z,2948
2024-05-09T12:03:14.182Z,2239
2024-05-09T12:04:27.442Z,1870
2024-05-09T12:05:40.707Z,26189
2024-05-09T12:06:54.946Z,26491
2024-05-09T12:08:09.185Z,3984
2024-05-09T12:09:23.423Z,2999
2024-05-09T12:10:37.662Z,3570
2024-05-09T12:11:51.900Z,4174
2024-05-09T12:13:06.138Z,1516
2024-05-09T12:14:20.377Z,7809
2024-05-09T12:15:34.615Z,2825
2024-05-09T12:16:47.875Z,7233
2024-05-09T12:18:01.129Z,3702
2024-05-09T12:19:15.379Z,28053
2024-05-09T12:20:29.618Z,28743
2024-05-09T12:21:43.856Z,3199
2024-05-09T12:22:58.094Z,11665
2024-05-09T12:24:12.333Z,26755
2024-05-09T12:25:26.571Z,59028
2024-05-09T12:26:40.810Z,5169
2024-05-09T12:27:55.048Z,4305
2024-05-09T12:29:09.287Z,64238
2024-05-09T12:30:23.525Z,12474
2024-05-09T12:31:37.764Z,16706
2024-05-09T12:32:52.002Z,5384
2024-05-09T12:34:05.257Z,3681
2024-05-09T12:35:19.496Z,3120
2024-05-09T12:36:33.734Z,2782
2024-05-09T12:37:47.972Z,2616
2024-05-09T12:39:02.211Z,2531
2024-05-09T12:40:16.450Z,2482
2024-05-09T12:41:30.688Z,2327
2024-05-09T12:42:44.938Z,77338
2024-05-09T12:43:59.176Z,76862
2024-05-09T12:45:13.414Z,75387
2024-05-09T12:46:27.653Z,59727
2024-05-09T12:47:41.891Z,8990
2024-05-09T12:48:56.130Z,5000
2024-05-09T12:50:09.384Z,3268
2024-05-09T12:51:23.623Z,3232
2024-05-09T12:52:37.862Z,3031
2024-05-09T12:53:52.101Z,1792
2024-05-09T12:55:06.340Z,4855
2024-05-09T12:56:20.578Z,24960
2024-05-09T12:57:34.816Z,4039
2024-05-09T12:58:49.055Z,3541
2024-05-09T13:00:03.293Z,3259
2024-05-09T13:01:17.532Z,3078
2024-05-09T13:02:31.770Z,2580
2024-05-09T13:03:46.008Z,2751
2024-05-09T13:05:00.247Z,2970
2024-05-09T13:06:13.501Z,4605
2024-05-09T13:07:27.741Z,3404
2024-05-09T13:08:41.979Z,4177
2024-05-09T13:09:56.218Z,4595
2024-05-09T13:11:10.456Z,3455
2024-05-09T13:12:24.695Z,4103
2024-05-09T13:13:38.933Z,3698
2024-05-09T13:14:53.171Z,3157
2024-05-09T13:16:07.410Z,4010
2024-05-09T13:17:21.649Z,2985
2024-05-09T13:18:35.887Z,2574
2024-05-09T13:19:50.126Z,2632
2024-05-09T13:21:04.365Z,1947
2024-05-09T13:22:17.620Z,2577
2024-05-09T13:23:31.859Z,2795
2024-05-09T13:24:46.098Z,3365
2024-05-09T13:26:00.336Z,4212
2024-05-09T13:27:14.575Z,3047
2024-05-09T13:28:28.814Z,2427
2024-05-09T13:29:43.053Z,2407
2024-05-09T13:30:57.292Z,2163
2024-05-09T13:32:11.530Z,1849
2024-05-09T13:33:25.770Z,2648
2024-05-09T13:34:40.008Z,2529
2024-05-09T13:35:54.247Z,2905
2024-05-09T13:37:08.486Z,2861
2024-05-09T13:38:21.741Z,2844
2024-05-09T13:39:35.980Z,2946
2024-05-09T13:40:50.219Z,3158
2024-05-09T13:42:04.458Z,3393
2024-05-09T13:43:18.697Z,3629
2024-05-09T13:44:32.936Z,2930
2024-05-09T13:45:47.174Z,2665
2024-05-09T13:47:01.413Z,2378
2024-05-09T13:48:15.652Z,2104
2024-05-09T13:49:29.891Z,2341
2024-05-09T13:50:44.129Z,2486
2024-05-09T13:51:58.368Z,2159
2024-05-09T13:53:12.607Z,2054
2024-05-09T13:54:25.862Z,1987
2024-05-09T13:55:40.101Z,1825
2024-05-09T13:56:53.361Z,1731
2024-05-09T13:58:07.600Z,1468
2024-05-09T13:59:21.839Z,2014
2024-05-09T14:01:50.316Z,1829
2024-05-09T14:03:04.555Z,1915
2024-05-09T14:04:18.795Z,2130
2024-05-09T14:05:33.034Z,1867
2024-05-09T14:06:47.273Z,2066
2024-05-09T14:08:01.512Z,2063
2024-05-09T14:09:15.751Z,2139
2024-05-09T14:10:29.990Z,2274
2024-05-09T14:11:44.229Z,2269
2024-05-09T14:12:57.484Z,2223
2024-05-09T14:14:11.723Z,2310
2024-05-09T14:15:25.962Z,2532
2024-05-09T14:16:40.201Z,2457
2024-05-09T14:17:54.440Z,2412
2024-05-09T14:19:08.679Z,2400
2024-05-09T14:20:22.917Z,2401
2024-05-09T14:21:37.156Z,2405
2024-05-09T14:22:51.395Z,2309
2024-05-09T14:24:05.635Z,2172
2024-05-09T14:25:19.874Z,2039
2024-05-09T14:26:34.113Z,1927
2024-05-09T14:27:48.352Z,1800
2024-05-09T14:29:01.607Z,1790
2024-05-09T14:30:15.846Z,1772
2024-05-09T14:31:30.085Z,1777
2024-05-09T14:32:44.324Z,1718
2024-05-09T14:33:58.562Z,1688
2024-05-09T14:35:12.801Z,1730
2024-05-09T14:36:27.040Z,1618
2024-05-09T14:37:41.279Z,1641
2024-05-09T14:38:55.519Z,1755
2024-05-09T14:40:09.757Z,1506
2024-05-09T14:41:23.996Z,1595
2024-05-09T14:42:38.235Z,1589
2024-05-09T14:43:52.474Z,2188
2024-05-09T14:45:05.729Z,1769
2024-05-09T14:46:19.968Z,1616
2024-05-09T14:47:34.206Z,1288
2024-05-09T14:48:48.445Z,1810
2024-05-09T14:50:02.685Z,1490
2024-05-09T14:51:16.923Z,1416
2024-05-09T14:52:31.162Z,1515
2024-05-09T14:53:45.401Z,1404
2024-05-09T14:54:59.640Z,1348
2024-05-09T14:56:13.879Z,1295
2024-05-09T14:57:28.118Z,1233
2024-05-09T14:58:42.357Z,670
2024-05-09T14:59:56.596Z,1438
2024-05-09T15:01:09.851Z,1516
2024-05-09T15:02:24.090Z,1937
2024-05-09T15:03:38.328Z,1513
2024-05-09T15:04:52.567Z,985
2024-05-09T15:06:06.806Z,972
2024-05-09T15:07:21.045Z,1255
2024-05-09T15:08:35.283Z,1235
2024-05-09T15:09:49.522Z,1202
2024-05-09T15:11:03.761Z,1304
2024-05-09T15:12:18.000Z,1309
2024-05-09T15:13:32.239Z,1479
2024-05-09T15:14:46.477Z,1620
2024-05-09T15:16:00.716Z,1660
2024-05-09T15:17:13.971Z,1602
2024-05-09T15:18:28.210Z,1900
2024-05-09T15:19:42.448Z,2235
2024-05-09T15:20:56.687Z,878
2024-05-09T15:23:25.165Z,1776
2024-05-09T15:24:39.403Z,1272
2024-05-09T15:25:53.642Z,2199
2024-05-09T15:27:07.881Z,1655
2024-05-09T15:28:22.119Z,716
2024-05-09T15:29:36.358Z,1229
2024-05-09T15:30:50.598Z,1682
2024-05-09T15:32:04.837Z,1963
2024-05-09T15:33:18.092Z,647
2024-05-09T15:34:32.330Z,1338
2024-05-09T15:35:46.569Z,1384
2024-05-09T15:37:00.808Z,1364
2024-05-09T15:38:15.046Z,2019
2024-05-09T15:39:29.285Z,778
2024-05-09T15:40:43.524Z,2014
2024-05-09T15:41:57.762Z,702
2024-05-09T15:43:12.002Z,1314
2024-05-09T15:44:26.240Z,1296
2024-05-09T15:45:40.479Z,1284
2024-05-09T15:46:54.718Z,1300
2024-05-09T15:48:08.956Z,1368
2024-05-09T15:49:22.211Z,1368
2024-05-09T15:50:36.450Z,1359
2024-05-09T15:51:50.689Z,1345
2024-05-09T15:53:04.927Z,1341
2024-05-09T15:54:19.167Z,1302
2024-05-09T15:55:33.405Z,1269
2024-05-09T15:56:47.644Z,1259
2024-05-09T15:58:01.883Z,1270
2024-05-09T15:59:16.121Z,1232
2024-05-09T16:00:30.360Z,1258
2024-05-09T16:01:44.599Z,1109
2024-05-09T16:02:58.837Z,1194
2024-05-09T16:04:13.076Z,1135
2024-05-09T16:05:26.331Z,1199
2024-05-09T16:06:40.570Z,1261
2024-05-09T16:07:54.809Z,1211
2024-05-09T16:09:09.047Z,1214
2024-05-09T16:10:23.286Z,1197
2024-05-09T16:11:37.524Z,1209
2024-05-09T16:12:51.763Z,1226
2024-05-09T16:15:20.241Z,1179
2024-05-09T16:16:34.480Z,1080
2024-05-09T16:17:48.718Z,1146
2024-05-09T16:19:02.957Z,1140
2024-05-09T16:20:17.196Z,1475
2024-05-09T16:22:45.673Z,555
2024-05-09T16:23:58.928Z,1189
2024-05-09T16:25:13.166Z,1145
2024-05-09T16:26:27.406Z,1050
2024-05-09T16:27:41.644Z,988
2024-05-09T16:28:55.883Z,1093
2024-05-09T16:30:10.121Z,1138
2024-05-09T16:31:24.360Z,1013
2024-05-09T16:32:38.599Z,1112
2024-05-09T16:33:52.837Z,1032
2024-05-09T16:35:07.076Z,1049
2024-05-09T16:36:21.315Z,1088
2024-05-09T16:37:35.554Z,1199
2024-05-09T16:38:49.792Z,1211
2024-05-09T16:40:03.047Z,1057
2024-05-09T16:41:17.286Z,1033
2024-05-09T16:42:31.525Z,1047
2024-05-09T16:43:45.763Z,1019
2024-05-09T16:45:00.002Z,979
2024-05-09T16:46:14.241Z,922
2024-05-09T16:47:28.480Z,794
2024-05-09T16:48:42.719Z,1001
2024-05-09T16:49:56.957Z,994
2024-05-09T16:51:11.196Z,1076
2024-05-09T16:52:25.435Z,1035
2024-05-09T16:53:39.673Z,1033
2024-05-09T16:54:53.912Z,1076
2024-05-09T16:56:07.167Z,1006
2024-05-09T16:57:21.406Z,1114
2024-05-09T16:58:35.645Z,1004
2024-05-09T16:59:49.883Z,983
2024-05-09T17:01:04.122Z,987
2024-05-09T17:02:18.361Z,936
2024-05-09T17:03:32.599Z,1008
2024-05-09T17:04:46.838Z,947
2024-05-09T17:06:01.077Z,941
2024-05-09T17:07:15.316Z,998
2024-05-09T17:08:29.555Z,1067
2024-05-09T17:09:43.793Z,1034
2024-05-09T17:10:58.032Z,1038
2024-05-09T17:12:11.287Z,968
2024-05-09T17:13:25.526Z,1003
2024-05-09T17:14:39.764Z,857
2024-05-09T17:15:54.003Z,869
2024-05-09T17:17:08.242Z,796
2024-05-09T17:18:22.481Z,839
2024-05-09T17:19:36.720Z,773
2024-05-09T17:20:50.959Z,765
2024-05-09T17:22:05.198Z,799
2024-05-09T17:23:19.436Z,742
2024-05-09T17:24:33.675Z,636
2024-05-09T17:25:47.914Z,650
2024-05-09T17:27:02.152Z,685